Time,TemperatureF,DewpointF,PressureIn,WindDirection,WindDirectionDegrees,WindSpeedMPH,WindSpeedGustMPH,Humidity,HourlyPrecipIn,Conditions,Clouds,dailyrainin,SoftwareType,DateUTC
2013-11-02 00:00:00,40.4,38.0,29.29,West,278,2.0,7.0,89,0.00,,,0.00,weatherlink.com 1.10,2013-11-02 00:00:00,
2013-11-02 00:15:00,41.0,37.0,29.29,NW,310,2.0,6.0,87,0.00,,,0.00,weatherlink.com 1.10,2013-11-02 00:15:00,
2013-11-02 00:30:00,40.3,37.0,29.27,SW,232,1.0,4.0,88,0.00,,,0.00,weatherlink.com 1.10,2013-11-02 00:30:00,
2013-11-02 00:45:00,40.3,37.0,29.26,SW,224,2.0,7.0,87,0.00,,,0.00,weatherlink.com 1.10,2013-11-02 00:45:00,
2013-11-02 01:00:00,40.1,37.0,29.26,SW,228,3.0,8.0,87,0.00,,,0.00,weatherlink.com 1.10,2013-11-02 01:00:00,
2013-11-02 01:16:00,40.4,37.0,29.25,WSW,243,3.0,6.0,88,0.00,,,0.00,weatherlink.com 1.10,2013-11-02 01:16:00,
2013-11-02 01:31:00,40.7,38.0,29.25,WSW,240,2.0,7.0,88,0.00,,,0.00,weatherlink.com 1.10,2013-11-02 01:31:00,
2013-11-02 01:46:00,40.7,37.0,29.24,WSW,246,2.0,6.0,86,0.00,,,0.00,weatherlink.com 1.10,2013-11-02 01:46:00,
2013-11-02 02:01:00,40.9,37.0,29.23,WSW,248,4.0,6.0,85,0.00,,,0.00,weatherlink.com 1.10,2013-11-02 02:01:00,
2013-11-02 02:16:00,40.9,37.0,29.23,West,278,2.0,6.0,85,0.00,,,0.00,weatherlink.com 1.10,2013-11-02 02:16:00,
2013-11-02 02:31:00,40.6,37.0,29.22,West,281,2.0,3.0,86,0.00,,,0.00,weatherlink.com 1.10,2013-11-02 02:31:00,
2013-11-02 02:46:00,41.2,37.0,29.21,West,267,1.0,2.0,84,0.00,,,0.00,weatherlink.com 1.10,2013-11-02 02:46:00,
2013-11-02 03:01:00,41.7,37.0,29.20,West,270,3.0,5.0,83,0.00,,,0.00,weatherlink.com 1.10,2013-11-02 03:01:00,
2013-11-02 03:16:00,42.0,37.0,29.20,WNW,285,1.0,4.0,82,0.00,,,0.00,weatherlink.com 1.10,2013-11-02 03:16:00,
2013-11-02 03:31:00,-999.0,-99.9,29.18,North,-999,-999.0,-999.0,-999,0.00,,,0.00,weatherlink.com 1.10,2013-11-02 03:31:00,
2013-11-02 03:46:00,-999.0,-99.9,29.17,North,-999,-999.0,-999.0,-999,0.00,,,0.00,weatherlink.com 1.10,2013-11-02 03:46:00,
2013-11-02 04:01:00,-999.0,-99.9,29.16,North,-999,-999.0,-999.0,-999,0.00,,,0.00,weatherlink.com 1.10,2013-11-02 04:01:00,
2013-11-02 04:16:00,-999.0,-99.9,29.15,North,-999,-999.0,-999.0,-999,0.00,,,0.00,weatherlink.com 1.10,2013-11-02 04:16:00,
2013-11-02 04:31:00,-999.0,-99.9,29.14,North,-999,-999.0,-999.0,-999,0.00,,,0.00,weatherlink.com 1.10,2013-11-02 04:31:00,
2013-11-02 04:46:00,-999.0,-99.9,29.12,North,-999,-999.0,-999.0,-999,0.00,,,0.00,weatherlink.com 1.10,2013-11-02 04:46:00,
2013-11-02 05:01:00,-999.0,-99.9,29.10,North,-999,-999.0,-999.0,-999,0.00,,,0.00,weatherlink.com 1.10,2013-11-02 05:01:00,
2013-11-02 05:16:00,-999.0,-99.9,29.08,North,-999,-999.0,-999.0,-999,0.00,,,0.00,weatherlink.com 1.10,2013-11-02 05:16:00,
2013-11-02 05:31:00,-999.0,-99.9,29.06,North,-999,-999.0,-999.0,-999,0.00,,,0.00,weatherlink.com 1.10,2013-11-02 05:31:00,
2013-11-02 05:47:00,-999.0,-99.9,29.03,North,-999,-999.0,-999.0,-999,0.00,,,0.00,weatherlink.com 1.10,2013-11-02 05:47:00,
2013-11-02 06:02:00,-999.0,-99.9,29.03,North,-999,-999.0,-999.0,-999,0.00,,,0.00,weatherlink.com 1.10,2013-11-02 06:02:00,
2013-11-02 06:17:00,-999.0,-99.9,29.02,North,-999,-999.0,-999.0,-999,0.00,,,0.00,weatherlink.com 1.10,2013-11-02 06:17:00,
2013-11-02 06:32:00,-999.0,-99.9,28.97,North,-999,-999.0,-999.0,-999,0.00,,,0.00,weatherlink.com 1.10,2013-11-02 06:32:00,
2013-11-02 06:47:00,-999.0,-99.9,28.94,North,-999,-999.0,-999.0,-999,0.00,,,0.00,weatherlink.com 1.10,2013-11-02 06:47:00,
2013-11-02 07:02:00,-999.0,-99.9,28.92,North,-999,-999.0,-999.0,-999,0.00,,,0.00,weatherlink.com 1.10,2013-11-02 07:02:00,
2013-11-02 07:17:00,-999.0,-99.9,28.91,North,-999,-999.0,-999.0,-999,0.00,,,0.00,weatherlink.com 1.10,2013-11-02 07:17:00,
2013-11-02 07:32:00,-999.0,-99.9,28.90,North,-999,-999.0,-999.0,-999,0.00,,,0.00,weatherlink.com 1.10,2013-11-02 07:32:00,
2013-11-02 07:47:00,-999.0,-99.9,28.89,North,-999,-999.0,-999.0,-999,0.00,,,0.00,weatherlink.com 1.10,2013-11-02 07:47:00,
2013-11-02 08:02:00,-999.0,-99.9,28.89,North,-999,-999.0,-999.0,-999,0.00,,,0.00,weatherlink.com 1.10,2013-11-02 08:02:00,
2013-11-02 08:17:00,-999.0,-99.9,28.88,North,-999,-999.0,-999.0,-999,0.00,,,0.00,weatherlink.com 1.10,2013-11-02 08:17:00,
2013-11-02 08:32:00,-999.0,-99.9,28.88,North,-999,-999.0,-999.0,-999,0.00,,,0.00,weatherlink.com 1.10,2013-11-02 08:32:00,
2013-11-02 08:47:00,50.0,45.0,28.86,WNW,289,14.0,25.0,82,0.00,,,0.00,weatherlink.com 1.10,2013-11-02 08:47:00,
2013-11-02 09:02:00,50.7,45.0,28.85,SW,235,17.0,29.0,80,0.00,,,0.00,weatherlink.com 1.10,2013-11-02 09:02:00,
2013-11-02 09:18:00,50.9,45.0,28.83,WSW,252,9.0,23.0,81,0.00,,,0.00,weatherlink.com 1.10,2013-11-02 09:18:00,
2013-11-02 09:33:00,51.6,45.0,28.81,NW,314,13.0,31.0,77,0.00,,,0.00,weatherlink.com 1.10,2013-11-02 09:33:00,
2013-11-02 09:48:00,51.6,44.0,28.80,SSW,212,12.0,26.0,76,0.00,,,0.00,weatherlink.com 1.10,2013-11-02 09:48:00,
2013-11-02 10:03:00,51.4,44.0,28.78,West,267,7.0,37.0,75,0.00,,,0.00,weatherlink.com 1.10,2013-11-02 10:03:00,
2013-11-02 10:18:00,50.6,44.0,28.77,SW,215,21.0,33.0,79,0.00,,,0.00,weatherlink.com 1.10,2013-11-02 10:18:00,
2013-11-02 10:33:00,49.3,45.0,28.74,WNW,290,6.0,26.0,85,0.00,,,0.00,weatherlink.com 1.10,2013-11-02 10:33:00,
2013-11-02 10:48:00,50.2,44.0,28.71,WSW,246,6.0,27.0,80,0.00,,,0.00,weatherlink.com 1.10,2013-11-02 10:48:00,
2013-11-02 11:03:00,50.0,45.0,28.70,West,271,11.0,30.0,83,0.00,,,0.00,weatherlink.com 1.10,2013-11-02 11:03:00,
2013-11-02 11:18:00,47.0,46.0,28.68,WNW,295,13.0,35.0,95,0.00,,,0.00,weatherlink.com 1.10,2013-11-02 11:18:00,
2013-11-02 11:33:00,46.6,46.0,28.69,West,274,8.0,34.0,96,0.00,,,0.00,weatherlink.com 1.10,2013-11-02 11:33:00,
2013-11-02 11:48:00,46.4,45.0,28.69,SW,232,9.0,26.0,96,0.00,,,0.00,weatherlink.com 1.10,2013-11-02 11:48:00,
2013-11-02 12:03:00,46.3,45.0,28.70,WSW,257,12.0,32.0,96,0.00,,,0.00,weatherlink.com 1.10,2013-11-02 12:03:00,
2013-11-02 12:18:00,46.7,46.0,28.69,WNW,300,14.0,25.0,96,0.00,,,0.00,weatherlink.com 1.10,2013-11-02 12:18:00,
2013-11-02 12:33:00,47.4,46.0,28.69,ENE,58,6.0,26.0,96,0.00,,,0.00,weatherlink.com 1.10,2013-11-02 12:33:00,
2013-11-02 12:49:00,46.9,46.0,28.68,WSW,238,31.0,31.0,95,0.00,,,0.00,weatherlink.com 1.10,2013-11-02 12:49:00,
2013-11-02 13:03:00,47.5,45.0,28.68,NW,314,17.0,26.0,90,0.00,,,0.00,weatherlink.com 1.10,2013-11-02 13:03:00,
2013-11-02 13:18:00,45.3,44.0,28.68,WNW,285,15.0,28.0,95,0.00,,,0.00,weatherlink.com 1.10,2013-11-02 13:18:00,
2013-11-02 13:33:00,45.0,44.0,28.68,NW,319,9.0,30.0,96,0.00,,,0.00,weatherlink.com 1.10,2013-11-02 13:33:00,
2013-11-02 13:48:00,45.2,44.0,28.68,NW,321,10.0,39.0,97,0.00,,,0.00,weatherlink.com 1.10,2013-11-02 13:48:00,
2013-11-02 14:03:00,45.4,45.0,28.69,NW,314,13.0,24.0,97,0.00,,,0.00,weatherlink.com 1.10,2013-11-02 14:03:00,
2013-11-02 14:18:00,45.5,45.0,28.69,NNW,335,15.0,27.0,97,0.00,,,0.00,weatherlink.com 1.10,2013-11-02 14:18:00,
2013-11-02 14:33:00,45.8,45.0,28.68,NNW,330,18.0,30.0,97,0.00,,,0.00,weatherlink.com 1.10,2013-11-02 14:33:00,
2013-11-02 14:48:00,46.0,45.0,28.69,WNW,302,14.0,30.0,96,0.00,,,0.00,weatherlink.com 1.10,2013-11-02 14:48:00,
2013-11-02 15:03:00,46.7,44.0,28.70,NW,326,8.0,29.0,90,0.00,,,0.00,weatherlink.com 1.10,2013-11-02 15:03:00,
2013-11-02 15:18:00,46.0,43.0,28.71,NW,314,7.0,33.0,89,0.00,,,0.00,weatherlink.com 1.10,2013-11-02 15:18:00,
2013-11-02 15:33:00,44.8,42.0,28.73,NW,307,21.0,30.0,90,0.00,,,0.00,weatherlink.com 1.10,2013-11-02 15:33:00,
2013-11-02 15:48:00,44.9,43.0,28.74,NNW,329,23.0,29.0,91,0.00,,,0.00,weatherlink.com 1.10,2013-11-02 15:48:00,
2013-11-02 16:03:00,45.2,43.0,28.75,NNW,338,12.0,27.0,92,0.00,,,0.00,weatherlink.com 1.10,2013-11-02 16:03:00,
2013-11-02 16:18:00,45.3,43.0,28.77,NNW,335,7.0,29.0,90,0.00,,,0.00,weatherlink.com 1.10,2013-11-02 16:18:00,
2013-11-02 16:33:00,44.9,42.0,28.79,NW,319,11.0,35.0,90,0.00,,,0.00,weatherlink.com 1.10,2013-11-02 16:33:00,
2013-11-02 16:48:00,45.0,42.0,28.81,WNW,283,11.0,30.0,89,0.00,,,0.00,weatherlink.com 1.10,2013-11-02 16:48:00,
2013-11-02 17:03:00,44.9,42.0,28.83,NW,316,21.0,30.0,89,0.00,,,0.00,weatherlink.com 1.10,2013-11-02 17:03:00,
2013-11-02 17:18:00,44.4,42.0,28.85,NW,319,11.0,28.0,90,0.00,,,0.00,weatherlink.com 1.10,2013-11-02 17:18:00,
2013-11-02 17:34:00,44.5,41.0,28.86,NW,315,11.0,30.0,87,0.00,,,0.00,weatherlink.com 1.10,2013-11-02 17:34:00,
2013-11-02 17:49:00,44.7,41.0,28.87,WNW,290,13.0,27.0,87,0.00,,,0.00,weatherlink.com 1.10,2013-11-02 17:49:00,
2013-11-02 18:04:00,44.5,42.0,28.89,NNW,342,5.0,27.0,89,0.00,,,0.00,weatherlink.com 1.10,2013-11-02 18:04:00,
2013-11-02 18:19:00,44.6,42.0,28.91,West,279,8.0,29.0,89,0.00,,,0.00,weatherlink.com 1.10,2013-11-02 18:19:00,
2013-11-02 18:34:00,44.9,41.0,28.92,North,352,13.0,31.0,87,0.00,,,0.00,weatherlink.com 1.10,2013-11-02 18:34:00,
2013-11-02 18:49:00,45.0,41.0,28.94,WNW,290,14.0,29.0,87,0.00,,,0.00,weatherlink.com 1.10,2013-11-02 18:49:00,
2013-11-02 19:04:00,44.9,41.0,28.95,NNW,338,17.0,35.0,85,0.00,,,0.00,weatherlink.com 1.10,2013-11-02 19:04:00,
2013-11-02 19:19:00,44.7,41.0,28.97,NNW,327,9.0,35.0,87,0.00,,,0.00,weatherlink.com 1.10,2013-11-02 19:19:00,
2013-11-02 19:34:00,44.6,41.0,28.98,NNW,342,7.0,25.0,87,0.00,,,0.00,weatherlink.com 1.10,2013-11-02 19:34:00,
2013-11-02 19:49:00,44.6,40.0,29.00,NNW,344,15.0,29.0,85,0.00,,,0.00,weatherlink.com 1.10,2013-11-02 19:49:00,
2013-11-02 20:04:00,44.2,40.0,29.01,North,356,22.0,25.0,86,0.00,,,0.00,weatherlink.com 1.10,2013-11-02 20:04:00,
2013-11-02 20:19:00,44.2,40.0,29.02,North,11,9.0,25.0,85,0.00,,,0.00,weatherlink.com 1.10,2013-11-02 20:19:00,
2013-11-02 20:34:00,44.0,40.0,29.02,NW,312,7.0,25.0,86,0.00,,,0.00,weatherlink.com 1.10,2013-11-02 20:34:00,
2013-11-02 20:49:00,44.0,40.0,29.02,North,360,17.0,25.0,85,0.00,,,0.00,weatherlink.com 1.10,2013-11-02 20:49:00,
2013-11-02 21:04:00,43.5,39.0,29.02,NW,304,4.0,23.0,85,0.00,,,0.00,weatherlink.com 1.10,2013-11-02 21:04:00,
2013-11-02 21:19:00,43.3,39.0,29.03,NW,309,5.0,28.0,84,0.00,,,0.00,weatherlink.com 1.10,2013-11-02 21:19:00,
2013-11-02 21:34:00,43.1,39.0,29.05,NNE,30,9.0,24.0,84,0.00,,,0.00,weatherlink.com 1.10,2013-11-02 21:34:00,
2013-11-02 21:49:00,43.0,39.0,29.06,North,11,11.0,20.0,84,0.00,,,0.00,weatherlink.com 1.10,2013-11-02 21:49:00,
2013-11-02 22:04:00,43.1,38.0,29.07,NNW,328,11.0,18.0,83,0.00,,,0.00,weatherlink.com 1.10,2013-11-02 22:04:00,
2013-11-02 22:19:00,43.2,38.0,29.07,NNW,338,14.0,17.0,83,0.00,,,0.00,weatherlink.com 1.10,2013-11-02 22:19:00,
2013-11-02 22:34:00,43.2,38.0,29.07,NNW,338,14.0,18.0,82,0.00,,,0.00,weatherlink.com 1.10,2013-11-02 22:34:00,
2013-11-02 22:49:00,43.0,38.0,29.07,WNW,285,7.0,27.0,83,0.00,,,0.00,weatherlink.com 1.10,2013-11-02 22:49:00,
2013-11-02 23:04:00,42.8,38.0,29.08,North,356,10.0,24.0,84,0.00,,,0.00,weatherlink.com 1.10,2013-11-02 23:04:00,
2013-11-02 23:19:00,42.6,38.0,29.09,WNW,284,6.0,18.0,84,0.00,,,0.00,weatherlink.com 1.10,2013-11-02 23:19:00,
2013-11-02 23:34:00,42.7,38.0,29.09,NNW,327,10.0,23.0,82,0.00,,,0.00,weatherlink.com 1.10,2013-11-02 23:34:00,
2013-11-02 23:49:00,42.8,37.0,29.10,NW,308,10.0,23.0,81,0.00,,,0.00,weatherlink.com 1.10,2013-11-02 23:49:00,